sensor_id;sensor_type;location;lat;lon;timestamp;P1;P2;P0
72031;PMS5003;49185;42.320;23.198;2023-11-22T00:01:11;2983.67;2983.67;2983.67
72031;PMS5003;49185;42.320;23.198;2023-11-22T00:03:36;3023.00;3023.00;3023.00
72031;PMS5003;49185;42.320;23.198;2023-11-22T00:06:02;3023.00;3023.00;3023.00
72031;PMS5003;49185;42.320;23.198;2023-11-22T00:08:27;2981.00;2981.00;2981.00
72031;PMS5003;49185;42.320;23.198;2023-11-22T00:10:53;2998.33;2998.33;2998.33
72031;PMS5003;49185;42.320;23.198;2023-11-22T00:13:18;2998.33;2998.33;2998.33
72031;PMS5003;49185;42.320;23.198;2023-11-22T00:15:43;3023.00;3023.00;3023.00
72031;PMS5003;49185;42.320;23.198;2023-11-22T00:18:09;3018.67;3018.67;3018.67
72031;PMS5003;49185;42.320;23.198;2023-11-22T00:20:34;2979.67;2979.67;2979.67
72031;PMS5003;49185;42.320;23.198;2023-11-22T00:23:00;2978.00;2978.00;2978.00
72031;PMS5003;49185;42.320;23.198;2023-11-22T00:25:25;2978.33;2978.33;2978.33
72031;PMS5003;49185;42.320;23.198;2023-11-22T00:27:51;3001.00;3001.00;3001.00
72031;PMS5003;49185;42.320;23.198;2023-11-22T00:30:16;2979.67;2979.67;2979.67
72031;PMS5003;49185;42.320;23.198;2023-11-22T00:32:42;2983.67;2983.67;2983.67
72031;PMS5003;49185;42.320;23.198;2023-11-22T00:35:08;3014.00;3014.00;3014.00
72031;PMS5003;49185;42.320;23.198;2023-11-22T00:37:33;2994.00;2994.00;2994.00
72031;PMS5003;49185;42.320;23.198;2023-11-22T00:39:59;2952.50;2952.50;2952.50
72031;PMS5003;49185;42.320;23.198;2023-11-22T00:42:25;2947.33;2947.33;2947.33
72031;PMS5003;49185;42.320;23.198;2023-11-22T00:44:50;2966.67;2966.67;2966.67
72031;PMS5003;49185;42.320;23.198;2023-11-22T00:47:15;3015.33;3015.33;3015.33
72031;PMS5003;49185;42.320;23.198;2023-11-22T00:49:41;3011.33;3011.33;3011.33
72031;PMS5003;49185;42.320;23.198;2023-11-22T00:52:06;3011.33;3011.33;3011.33
72031;PMS5003;49185;42.320;23.198;2023-11-22T00:54:31;3018.67;3018.67;3018.67
72031;PMS5003;49185;42.320;23.198;2023-11-22T00:56:57;3011.33;3011.33;3011.33
72031;PMS5003;49185;42.320;23.198;2023-11-22T00:59:22;2990.00;2990.00;2990.00
72031;PMS5003;49185;42.320;23.198;2023-11-22T01:01:47;3011.33;3011.33;3011.33
72031;PMS5003;49185;42.320;23.198;2023-11-22T01:04:13;3007.00;3007.00;3007.00
72031;PMS5003;49185;42.320;23.198;2023-11-22T01:06:38;3007.00;3007.00;3007.00
72031;PMS5003;49185;42.320;23.198;2023-11-22T01:09:04;2987.00;2987.00;2987.00
72031;PMS5003;49185;42.320;23.198;2023-11-22T01:11:29;2979.67;2979.67;2979.67
72031;PMS5003;49185;42.320;23.198;2023-11-22T01:13:54;2962.67;2962.67;2962.67
72031;PMS5003;49185;42.320;23.198;2023-11-22T01:16:20;2992.67;2992.67;2992.67
72031;PMS5003;49185;42.320;23.198;2023-11-22T01:18:45;2947.67;2947.67;2947.67
72031;PMS5003;49185;42.320;23.198;2023-11-22T01:21:11;2970.00;2970.00;2970.00
72031;PMS5003;49185;42.320;23.198;2023-11-22T01:23:37;2997.00;2997.00;2997.00
72031;PMS5003;49185;42.320;23.198;2023-11-22T01:26:02;2975.33;2975.33;2975.33
72031;PMS5003;49185;42.320;23.198;2023-11-22T01:28:27;2964.00;2964.00;2964.00
72031;PMS5003;49185;42.320;23.198;2023-11-22T01:30:53;2937.67;2937.67;2937.67
72031;PMS5003;49185;42.320;23.198;2023-11-22T01:33:19;2952.50;2952.50;2952.50
72031;PMS5003;49185;42.320;23.198;2023-11-22T01:35:44;2949.00;2949.00;2949.00
72031;PMS5003;49185;42.320;23.198;2023-11-22T01:38:09;2941.33;2941.33;2941.33
72031;PMS5003;49185;42.320;23.198;2023-11-22T01:40:35;2985.00;2985.00;2985.00
72031;PMS5003;49185;42.320;23.198;2023-11-22T01:43:09;2967.00;2967.00;2967.00
72031;PMS5003;49185;42.320;23.198;2023-11-22T01:45:38;2956.50;2956.50;2956.50
72031;PMS5003;49185;42.320;23.198;2023-11-22T01:48:04;2926.67;2926.67;2926.67
72031;PMS5003;49185;42.320;23.198;2023-11-22T01:50:30;2929.50;2929.50;2929.50
72031;PMS5003;49185;42.320;23.198;2023-11-22T01:52:55;2919.67;2919.67;2919.67
72031;PMS5003;49185;42.320;23.198;2023-11-22T01:55:20;2977.00;2977.00;2977.00
72031;PMS5003;49185;42.320;23.198;2023-11-22T01:57:46;2977.00;2977.00;2977.00
72031;PMS5003;49185;42.320;23.198;2023-11-22T02:00:12;2990.00;2990.00;2990.00
72031;PMS5003;49185;42.320;23.198;2023-11-22T02:02:38;2975.50;2975.50;2975.50
72031;PMS5003;49185;42.320;23.198;2023-11-22T02:05:03;2907.67;2907.67;2907.67
72031;PMS5003;49185;42.320;23.198;2023-11-22T02:07:29;2996.67;2996.67;2996.67
72031;PMS5003;49185;42.320;23.198;2023-11-22T02:09:55;3005.50;3005.50;3005.50
72031;PMS5003;49185;42.320;23.198;2023-11-22T02:12:20;3005.67;3005.67;3005.67
72031;PMS5003;49185;42.320;23.198;2023-11-22T02:14:46;3002.33;3002.33;3002.33
72031;PMS5003;49185;42.320;23.198;2023-11-22T02:17:11;2983.67;2983.67;2983.67
72031;PMS5003;49185;42.320;23.198;2023-11-22T02:19:37;2969.00;2969.00;2969.00
72031;PMS5003;49185;42.320;23.198;2023-11-22T02:22:02;2979.67;2979.67;2979.67
72031;PMS5003;49185;42.320;23.198;2023-11-22T02:24:28;2938.67;2938.67;2938.67
72031;PMS5003;49185;42.320;23.198;2023-11-22T02:26:53;2990.00;2990.00;2990.00
72031;PMS5003;49185;42.320;23.198;2023-11-22T02:29:19;2981.00;2981.00;2981.00
72031;PMS5003;49185;42.320;23.198;2023-11-22T02:31:44;2971.33;2971.33;2971.33
72031;PMS5003;49185;42.320;23.198;2023-11-22T02:34:10;3002.33;3002.33;3002.33
72031;PMS5003;49185;42.320;23.198;2023-11-22T02:36:35;2979.67;2979.67;2979.67
72031;PMS5003;49185;42.320;23.198;2023-11-22T02:39:01;3007.00;3007.00;3007.00
72031;PMS5003;49185;42.320;23.198;2023-11-22T02:41:26;2971.33;2971.33;2971.33
72031;PMS5003;49185;42.320;23.198;2023-11-22T02:43:52;2975.00;2975.00;2975.00
72031;PMS5003;49185;42.320;23.198;2023-11-22T02:46:17;3002.33;3002.33;3002.33
72031;PMS5003;49185;42.320;23.198;2023-11-22T02:48:43;3007.00;3007.00;3007.00
72031;PMS5003;49185;42.320;23.198;2023-11-22T02:51:08;2996.67;2996.67;2996.67
72031;PMS5003;49185;42.320;23.198;2023-11-22T02:53:35;2973.50;2973.50;2973.50
72031;PMS5003;49185;42.320;23.198;2023-11-22T02:56:00;2961.00;2961.00;2961.00
72031;PMS5003;49185;42.320;23.198;2023-11-22T02:58:29;2965.33;2965.33;2965.33
72031;PMS5003;49185;42.320;23.198;2023-11-22T03:00:55;2990.00;2990.00;2990.00
72031;PMS5003;49185;42.320;23.198;2023-11-22T03:03:20;2953.00;2953.00;2953.00
72031;PMS5003;49185;42.320;23.198;2023-11-22T03:05:45;2998.33;2998.33;2998.33
72031;PMS5003;49185;42.320;23.198;2023-11-22T03:08:11;2979.67;2979.67;2979.67
72031;PMS5003;49185;42.320;23.198;2023-11-22T03:10:37;2945.67;2945.67;2945.67
72031;PMS5003;49185;42.320;23.198;2023-11-22T03:13:02;2943.50;2943.50;2943.50
72031;PMS5003;49185;42.320;23.198;2023-11-22T03:15:27;2961.33;2961.33;2961.33
72031;PMS5003;49185;42.320;23.198;2023-11-22T03:17:53;2990.00;2990.00;2990.00
72031;PMS5003;49185;42.320;23.198;2023-11-22T03:20:18;3002.33;3002.33;3002.33
72031;PMS5003;49185;42.320;23.198;2023-11-22T03:22:44;2977.00;2977.00;2977.00
72031;PMS5003;49185;42.320;23.198;2023-11-22T03:25:09;2998.33;2998.33;2998.33
72031;PMS5003;49185;42.320;23.198;2023-11-22T03:27:36;3010.00;3010.00;3010.00
72031;PMS5003;49185;42.320;23.198;2023-11-22T03:30:02;3010.00;3010.00;3010.00
72031;PMS5003;49185;42.320;23.198;2023-11-22T03:32:28;2975.50;2975.50;2975.50
72031;PMS5003;49185;42.320;23.198;2023-11-22T03:34:53;2962.67;2962.67;2962.67
72031;PMS5003;49185;42.320;23.198;2023-11-22T03:37:18;2977.00;2977.00;2977.00
72031;PMS5003;49185;42.320;23.198;2023-11-22T03:39:44;2979.67;2979.67;2979.67
72031;PMS5003;49185;42.320;23.198;2023-11-22T03:42:09;2962.67;2962.67;2962.67
72031;PMS5003;49185;42.320;23.198;2023-11-22T03:44:35;2975.33;2975.33;2975.33
72031;PMS5003;49185;42.320;23.198;2023-11-22T03:47:00;2972.67;2972.67;2972.67
72031;PMS5003;49185;42.320;23.198;2023-11-22T03:49:25;2953.00;2953.00;2953.00
72031;PMS5003;49185;42.320;23.198;2023-11-22T03:51:51;2943.33;2943.33;2943.33
72031;PMS5003;49185;42.320;23.198;2023-11-22T03:54:16;2998.33;2998.33;2998.33
72031;PMS5003;49185;42.320;23.198;2023-11-22T03:56:41;2962.67;2962.67;2962.67
72031;PMS5003;49185;42.320;23.198;2023-11-22T03:59:07;2974.33;2974.33;2974.33
72031;PMS5003;49185;42.320;23.198;2023-11-22T04:01:32;2992.67;2992.67;2992.67
72031;PMS5003;49185;42.320;23.198;2023-11-22T04:03:58;2988.33;2988.33;2988.33
72031;PMS5003;49185;42.320;23.198;2023-11-22T04:06:23;2964.00;2964.00;2964.00
72031;PMS5003;49185;42.320;23.198;2023-11-22T04:08:48;2957.00;2957.00;2957.00
72031;PMS5003;49185;42.320;23.198;2023-11-22T04:11:14;2953.00;2953.00;2953.00
72031;PMS5003;49185;42.320;23.198;2023-11-22T04:13:40;2992.50;2992.50;2992.50
72031;PMS5003;49185;42.320;23.198;2023-11-22T04:16:06;2963.00;2963.00;2963.00
72031;PMS5003;49185;42.320;23.198;2023-11-22T04:18:32;2997.00;2997.00;2997.00
72031;PMS5003;49185;42.320;23.198;2023-11-22T04:20:57;2975.33;2975.33;2975.33
72031;PMS5003;49185;42.320;23.198;2023-11-22T04:23:23;2977.00;2977.00;2977.00
72031;PMS5003;49185;42.320;23.198;2023-11-22T04:25:48;2994.00;2994.00;2994.00
72031;PMS5003;49185;42.320;23.198;2023-11-22T04:28:13;2990.00;2990.00;2990.00
72031;PMS5003;49185;42.320;23.198;2023-11-22T04:30:39;2955.67;2955.67;2955.67
72031;PMS5003;49185;42.320;23.198;2023-11-22T04:33:04;2960.00;2960.00;2960.00
72031;PMS5003;49185;42.320;23.198;2023-11-22T04:35:29;2947.67;2947.67;2947.67
72031;PMS5003;49185;42.320;23.198;2023-11-22T04:37:55;2990.00;2990.00;2990.00
72031;PMS5003;49185;42.320;23.198;2023-11-22T04:40:20;2990.00;2990.00;2990.00
72031;PMS5003;49185;42.320;23.198;2023-11-22T04:42:46;2991.00;2991.00;2991.00
72031;PMS5003;49185;42.320;23.198;2023-11-22T04:45:12;2964.00;2964.00;2964.00
72031;PMS5003;49185;42.320;23.198;2023-11-22T04:47:37;2990.00;2990.00;2990.00
72031;PMS5003;49185;42.320;23.198;2023-11-22T04:50:02;2966.67;2966.67;2966.67
72031;PMS5003;49185;42.320;23.198;2023-11-22T04:52:28;2961.00;2961.00;2961.00
72031;PMS5003;49185;42.320;23.198;2023-11-22T04:54:53;2991.33;2991.33;2991.33
72031;PMS5003;49185;42.320;23.198;2023-11-22T04:57:19;2992.67;2992.67;2992.67
72031;PMS5003;49185;42.320;23.198;2023-11-22T04:59:45;2991.33;2991.33;2991.33
72031;PMS5003;49185;42.320;23.198;2023-11-22T05:02:10;3005.50;3005.50;3005.50
72031;PMS5003;49185;42.320;23.198;2023-11-22T05:04:36;2966.67;2966.67;2966.67
72031;PMS5003;49185;42.320;23.198;2023-11-22T05:07:01;2994.00;2994.00;2994.00
72031;PMS5003;49185;42.320;23.198;2023-11-22T05:09:27;2975.33;2975.33;2975.33
72031;PMS5003;49185;42.320;23.198;2023-11-22T05:11:52;2979.67;2979.67;2979.67
72031;PMS5003;49185;42.320;23.198;2023-11-22T05:14:17;2990.00;2990.00;2990.00
72031;PMS5003;49185;42.320;23.198;2023-11-22T05:16:43;2991.00;2991.00;2991.00
72031;PMS5003;49185;42.320;23.198;2023-11-22T05:19:08;2995.67;2995.67;2995.67
72031;PMS5003;49185;42.320;23.198;2023-11-22T05:21:34;2994.00;2994.00;2994.00
72031;PMS5003;49185;42.320;23.198;2023-11-22T05:23:59;3015.33;3015.33;3015.33
72031;PMS5003;49185;42.320;23.198;2023-11-22T05:26:25;3020.33;3020.33;3020.33
72031;PMS5003;49185;42.320;23.198;2023-11-22T05:28:50;3018.67;3018.67;3018.67
72031;PMS5003;49185;42.320;23.198;2023-11-22T05:31:15;3024.33;3024.33;3024.33
72031;PMS5003;49185;42.320;23.198;2023-11-22T05:33:41;3005.67;3005.67;3005.67
72031;PMS5003;49185;42.320;23.198;2023-11-22T05:36:06;3014.00;3014.00;3014.00
72031;PMS5003;49185;42.320;23.198;2023-11-22T05:38:32;3023.00;3023.00;3023.00
72031;PMS5003;49185;42.320;23.198;2023-11-22T05:40:57;3018.67;3018.67;3018.67
72031;PMS5003;49185;42.320;23.198;2023-11-22T05:43:23;2996.67;2996.67;2996.67
72031;PMS5003;49185;42.320;23.198;2023-11-22T05:45:48;3018.67;3018.67;3018.67
72031;PMS5003;49185;42.320;23.198;2023-11-22T05:48:13;3018.67;3018.67;3018.67
72031;PMS5003;49185;42.320;23.198;2023-11-22T05:50:39;3015.33;3015.33;3015.33
72031;PMS5003;49185;42.320;23.198;2023-11-22T05:53:04;3020.33;3020.33;3020.33
72031;PMS5003;49185;42.320;23.198;2023-11-22T05:55:30;3007.00;3007.00;3007.00
72031;PMS5003;49185;42.320;23.198;2023-11-22T05:57:55;2986.67;2986.67;2986.67
72031;PMS5003;49185;42.320;23.198;2023-11-22T06:00:20;3015.33;3015.33;3015.33
72031;PMS5003;49185;42.320;23.198;2023-11-22T06:02:46;3007.00;3007.00;3007.00
72031;PMS5003;49185;42.320;23.198;2023-11-22T06:05:11;3033.33;3033.33;3033.33
72031;PMS5003;49185;42.320;23.198;2023-11-22T06:07:37;2978.00;2978.00;2978.00
72031;PMS5003;49185;42.320;23.198;2023-11-22T06:10:02;2972.33;2972.33;2972.33
72031;PMS5003;49185;42.320;23.198;2023-11-22T06:12:28;3037.33;3037.33;3037.33
72031;PMS5003;49185;42.320;23.198;2023-11-22T06:14:53;3051.33;3051.33;3051.33
72031;PMS5003;49185;42.320;23.198;2023-11-22T06:17:18;3034.33;3034.33;3034.33
72031;PMS5003;49185;42.320;23.198;2023-11-22T06:19:44;3027.33;3027.33;3027.33
72031;PMS5003;49185;42.320;23.198;2023-11-22T06:22:09;3007.00;3007.00;3007.00
72031;PMS5003;49185;42.320;23.198;2023-11-22T06:24:34;3025.67;3025.67;3025.67
72031;PMS5003;49185;42.320;23.198;2023-11-22T06:27:00;3055.33;3055.33;3055.33
72031;PMS5003;49185;42.320;23.198;2023-11-22T06:29:25;3054.00;3054.00;3054.00
72031;PMS5003;49185;42.320;23.198;2023-11-22T06:31:51;3027.67;3027.67;3027.67
72031;PMS5003;49185;42.320;23.198;2023-11-22T06:34:16;3023.00;3023.00;3023.00
72031;PMS5003;49185;42.320;23.198;2023-11-22T06:36:41;3023.00;3023.00;3023.00
72031;PMS5003;49185;42.320;23.198;2023-11-22T06:39:07;3029.00;3029.00;3029.00
72031;PMS5003;49185;42.320;23.198;2023-11-22T06:41:32;3015.33;3015.33;3015.33
72031;PMS5003;49185;42.320;23.198;2023-11-22T06:43:57;3027.67;3027.67;3027.67
72031;PMS5003;49185;42.320;23.198;2023-11-22T06:46:23;2990.00;2990.00;2990.00
72031;PMS5003;49185;42.320;23.198;2023-11-22T06:48:48;3031.67;3031.67;3031.67
72031;PMS5003;49185;42.320;23.198;2023-11-22T06:51:14;3029.00;3029.00;3029.00
72031;PMS5003;49185;42.320;23.198;2023-11-22T06:53:39;3018.67;3018.67;3018.67
72031;PMS5003;49185;42.320;23.198;2023-11-22T06:56:05;3027.67;3027.67;3027.67
72031;PMS5003;49185;42.320;23.198;2023-11-22T06:58:30;3029.00;3029.00;3029.00
72031;PMS5003;49185;42.320;23.198;2023-11-22T07:00:56;3005.67;3005.67;3005.67
72031;PMS5003;49185;42.320;23.198;2023-11-22T07:03:21;2995.67;2995.67;2995.67
72031;PMS5003;49185;42.320;23.198;2023-11-22T07:05:46;3020.33;3020.33;3020.33
72031;PMS5003;49185;42.320;23.198;2023-11-22T07:08:12;3002.33;3002.33;3002.33
72031;PMS5003;49185;42.320;23.198;2023-11-22T07:10:37;3002.33;3002.33;3002.33
72031;PMS5003;49185;42.320;23.198;2023-11-22T07:13:03;3015.33;3015.33;3015.33
72031;PMS5003;49185;42.320;23.198;2023-11-22T07:15:28;3033.33;3033.33;3033.33
72031;PMS5003;49185;42.320;23.198;2023-11-22T07:17:54;2983.67;2983.67;2983.67
72031;PMS5003;49185;42.320;23.198;2023-11-22T07:20:19;3011.33;3011.33;3011.33
72031;PMS5003;49185;42.320;23.198;2023-11-22T07:22:45;3045.00;3045.00;3045.00
72031;PMS5003;49185;42.320;23.198;2023-11-22T07:25:10;3020.33;3020.33;3020.33
72031;PMS5003;49185;42.320;23.198;2023-11-22T07:27:35;3049.67;3049.67;3049.67
72031;PMS5003;49185;42.320;23.198;2023-11-22T07:30:01;3055.33;3055.33;3055.33
72031;PMS5003;49185;42.320;23.198;2023-11-22T07:32:26;3034.67;3034.67;3034.67
72031;PMS5003;49185;42.320;23.198;2023-11-22T07:34:52;2995.33;2995.33;2995.33
72031;PMS5003;49185;42.320;23.198;2023-11-22T07:37:17;2982.33;2982.33;2982.33
72031;PMS5003;49185;42.320;23.198;2023-11-22T07:39:42;2978.00;2978.00;2978.00
72031;PMS5003;49185;42.320;23.198;2023-11-22T07:42:08;2982.33;2982.33;2982.33
72031;PMS5003;49185;42.320;23.198;2023-11-22T07:44:33;3002.33;3002.33;3002.33
72031;PMS5003;49185;42.320;23.198;2023-11-22T07:47:00;3042.50;3042.50;3042.50
72031;PMS5003;49185;42.320;23.198;2023-11-22T07:49:25;3064.67;3064.67;3064.67
72031;PMS5003;49185;42.320;23.198;2023-11-22T07:51:50;3055.33;3055.33;3055.33
72031;PMS5003;49185;42.320;23.198;2023-11-22T07:54:16;3040.67;3040.67;3040.67
72031;PMS5003;49185;42.320;23.198;2023-11-22T07:56:41;3073.67;3073.67;3073.67
72031;PMS5003;49185;42.320;23.198;2023-11-22T07:59:07;3102.00;3102.00;3102.00
72031;PMS5003;49185;42.320;23.198;2023-11-22T08:01:32;3057.00;3057.00;3057.00
72031;PMS5003;49185;42.320;23.198;2023-11-22T08:03:58;3043.33;3043.33;3043.33
72031;PMS5003;49185;42.320;23.198;2023-11-22T08:06:23;3108.33;3108.33;3108.33
72031;PMS5003;49185;42.320;23.198;2023-11-22T08:08:48;3113.33;3113.33;3113.33
72031;PMS5003;49185;42.320;23.198;2023-11-22T08:11:14;3115.00;3115.00;3115.00
72031;PMS5003;49185;42.320;23.198;2023-11-22T08:13:39;3119.67;3119.67;3119.67
72031;PMS5003;49185;42.320;23.198;2023-11-22T08:16:06;3144.00;3144.00;3144.00
72031;PMS5003;49185;42.320;23.198;2023-11-22T08:18:31;3119.67;3119.67;3119.67
72031;PMS5003;49185;42.320;23.198;2023-11-22T08:20:56;3160.67;3160.67;3160.67
72031;PMS5003;49185;42.320;23.198;2023-11-22T08:23:22;3181.33;3181.33;3181.33
72031;PMS5003;49185;42.320;23.198;2023-11-22T08:25:47;3196.33;3196.33;3196.33
72031;PMS5003;49185;42.320;23.198;2023-11-22T08:28:13;3219.00;3219.00;3219.00
72031;PMS5003;49185;42.320;23.198;2023-11-22T08:30:38;3209.00;3209.00;3209.00
72031;PMS5003;49185;42.320;23.198;2023-11-22T08:33:03;3148.00;3148.00;3148.00
72031;PMS5003;49185;42.320;23.198;2023-11-22T08:35:29;3152.33;3152.33;3152.33
72031;PMS5003;49185;42.320;23.198;2023-11-22T08:37:54;3014.00;3014.00;3014.00
72031;PMS5003;49185;42.320;23.198;2023-11-22T08:40:20;2995.33;2995.33;2995.33
72031;PMS5003;49185;42.320;23.198;2023-11-22T08:42:46;3026.33;3026.33;3026.33
72031;PMS5003;49185;42.320;23.198;2023-11-22T08:45:12;3003.00;3003.00;3003.00
72031;PMS5003;49185;42.320;23.198;2023-11-22T08:47:39;3027.67;3027.67;3027.67
72031;PMS5003;49185;42.320;23.198;2023-11-22T08:50:06;3005.50;3005.50;3005.50
72031;PMS5003;49185;42.320;23.198;2023-11-22T08:52:32;3010.00;3010.00;3010.00
72031;PMS5003;49185;42.320;23.198;2023-11-22T08:54:57;3273.33;3273.33;3273.33
72031;PMS5003;49185;42.320;23.198;2023-11-22T08:57:23;3269.33;3269.33;3269.33
72031;PMS5003;49185;42.320;23.198;2023-11-22T08:59:48;3224.00;3224.00;3224.00
72031;PMS5003;49185;42.320;23.198;2023-11-22T09:02:14;3202.33;3202.33;3202.33
72031;PMS5003;49185;42.320;23.198;2023-11-22T09:04:40;3202.00;3202.00;3202.00
72031;PMS5003;49185;42.320;23.198;2023-11-22T09:07:06;2981.50;2981.50;2981.50
72031;PMS5003;49185;42.320;23.198;2023-11-22T09:09:32;2971.33;2971.33;2971.33
72031;PMS5003;49185;42.320;23.198;2023-11-22T09:11:57;2966.67;2966.67;2966.67
72031;PMS5003;49185;42.320;23.198;2023-11-22T09:14:23;3225.67;3225.67;3225.67
72031;PMS5003;49185;42.320;23.198;2023-11-22T09:16:49;3215.67;3215.67;3215.67
72031;PMS5003;49185;42.320;23.198;2023-11-22T09:19:15;3204.50;3204.50;3204.50
72031;PMS5003;49185;42.320;23.198;2023-11-22T09:21:40;3167.33;3167.33;3167.33
72031;PMS5003;49185;42.320;23.198;2023-11-22T09:24:06;3162.33;3162.33;3162.33
72031;PMS5003;49185;42.320;23.198;2023-11-22T09:26:31;3199.50;3199.50;3199.50
72031;PMS5003;49185;42.320;23.198;2023-11-22T09:28:57;3204.00;3204.00;3204.00
72031;PMS5003;49185;42.320;23.198;2023-11-22T09:31:22;3164.00;3164.00;3164.00
72031;PMS5003;49185;42.320;23.198;2023-11-22T09:33:48;3215.67;3215.67;3215.67
72031;PMS5003;49185;42.320;23.198;2023-11-22T09:36:13;3205.67;3205.67;3205.67
72031;PMS5003;49185;42.320;23.198;2023-11-22T09:38:40;3229.00;3229.00;3229.00
72031;PMS5003;49185;42.320;23.198;2023-11-22T09:41:05;3219.00;3219.00;3219.00
72031;PMS5003;49185;42.320;23.198;2023-11-22T09:43:31;3229.00;3229.00;3229.00
72031;PMS5003;49185;42.320;23.198;2023-11-22T09:45:56;3148.00;3148.00;3148.00
72031;PMS5003;49185;42.320;23.198;2023-11-22T09:48:22;3194.67;3194.67;3194.67
72031;PMS5003;49185;42.320;23.198;2023-11-22T09:53:58;2988.00;2988.00;2988.00
72031;PMS5003;49185;42.320;23.198;2023-11-22T09:56:24;3259.50;3259.50;3259.50
72031;PMS5003;49185;42.320;23.198;2023-11-22T09:58:51;3229.00;3229.00;3229.00
72031;PMS5003;49185;42.320;23.198;2023-11-22T10:01:18;3254.50;3254.50;3254.50
72031;PMS5003;49185;42.320;23.198;2023-11-22T10:03:44;3193.00;3193.00;3193.00
72031;PMS5003;49185;42.320;23.198;2023-11-22T10:06:10;3221.50;3221.50;3221.50
72031;PMS5003;49185;42.320;23.198;2023-11-22T10:08:35;3172.00;3172.00;3172.00
72031;PMS5003;49185;42.320;23.198;2023-11-22T10:11:00;3219.00;3219.00;3219.00
72031;PMS5003;49185;42.320;23.198;2023-11-22T10:13:26;3162.33;3162.33;3162.33
72031;PMS5003;49185;42.320;23.198;2023-11-22T10:15:52;3144.00;3144.00;3144.00
72031;PMS5003;49185;42.320;23.198;2023-11-22T10:18:18;3247.00;3247.00;3247.00
72031;PMS5003;49185;42.320;23.198;2023-11-22T10:20:45;3216.50;3216.50;3216.50
72031;PMS5003;49185;42.320;23.198;2023-11-22T10:23:16;3249.50;3249.50;3249.50
72031;PMS5003;49185;42.320;23.198;2023-11-22T10:25:46;3244.00;3244.00;3244.00
72031;PMS5003;49185;42.320;23.198;2023-11-22T10:28:12;3249.50;3249.50;3249.50
72031;PMS5003;49185;42.320;23.198;2023-11-22T10:30:38;3220.67;3220.67;3220.67
72031;PMS5003;49185;42.320;23.198;2023-11-22T10:33:04;3259.33;3259.33;3259.33
72031;PMS5003;49185;42.320;23.198;2023-11-22T10:35:29;3168.00;3168.00;3168.00
72031;PMS5003;49185;42.320;23.198;2023-11-22T10:37:55;3221.50;3221.50;3221.50
72031;PMS5003;49185;42.320;23.198;2023-11-22T10:40:20;3150.67;3150.67;3150.67
72031;PMS5003;49185;42.320;23.198;2023-11-22T10:42:47;3187.00;3187.00;3187.00
72031;PMS5003;49185;42.320;23.198;2023-11-22T10:45:15;3184.50;3184.50;3184.50
72031;PMS5003;49185;42.320;23.198;2023-11-22T10:47:40;2979.67;2979.67;2979.67
72031;PMS5003;49185;42.320;23.198;2023-11-22T10:50:08;3010.00;3010.00;3010.00
72031;PMS5003;49185;42.320;23.198;2023-11-22T10:52:34;2990.00;2990.00;2990.00
72031;PMS5003;49185;42.320;23.198;2023-11-22T10:55:01;3249.50;3249.50;3249.50
72031;PMS5003;49185;42.320;23.198;2023-11-22T10:57:30;3206.50;3206.50;3206.50
72031;PMS5003;49185;42.320;23.198;2023-11-22T10:59:57;3202.00;3202.00;3202.00
72031;PMS5003;49185;42.320;23.198;2023-11-22T11:02:27;3199.50;3199.50;3199.50
72031;PMS5003;49185;42.320;23.198;2023-11-22T11:04:58;3262.00;3262.00;3262.00
72031;PMS5003;49185;42.320;23.198;2023-11-22T11:07:27;3194.50;3194.50;3194.50
72031;PMS5003;49185;42.320;23.198;2023-11-22T11:09:55;3283.00;3283.00;3283.00
72031;PMS5003;49185;42.320;23.198;2023-11-22T11:12:22;3264.50;3264.50;3264.50
72031;PMS5003;49185;42.320;23.198;2023-11-22T11:14:47;3219.00;3219.00;3219.00
72031;PMS5003;49185;42.320;23.198;2023-11-22T11:17:14;3172.50;3172.50;3172.50
72031;PMS5003;49185;42.320;23.198;2023-11-22T11:19:40;3229.00;3229.00;3229.00
72031;PMS5003;49185;42.320;23.198;2023-11-22T11:22:07;3220.67;3220.67;3220.67
72031;PMS5003;49185;42.320;23.198;2023-11-22T11:24:43;3197.00;3197.00;3197.00
72031;PMS5003;49185;42.320;23.198;2023-11-22T11:27:12;3244.00;3244.00;3244.00
72031;PMS5003;49185;42.320;23.198;2023-11-22T11:29:38;3148.33;3148.33;3148.33
72031;PMS5003;49185;42.320;23.198;2023-11-22T11:32:04;3013.00;3013.00;3013.00
72031;PMS5003;49185;42.320;23.198;2023-11-22T11:34:29;3275.33;3275.33;3275.33
72031;PMS5003;49185;42.320;23.198;2023-11-22T11:36:55;3280.33;3280.33;3280.33
72031;PMS5003;49185;42.320;23.198;2023-11-22T11:39:25;3246.50;3246.50;3246.50
72031;PMS5003;49185;42.320;23.198;2023-11-22T11:41:51;3252.00;3252.00;3252.00
72031;PMS5003;49185;42.320;23.198;2023-11-22T11:44:17;3186.33;3186.33;3186.33
72031;PMS5003;49185;42.320;23.198;2023-11-22T11:46:42;3249.33;3249.33;3249.33
72031;PMS5003;49185;42.320;23.198;2023-11-22T11:49:11;3269.50;3269.50;3269.50
72031;PMS5003;49185;42.320;23.198;2023-11-22T11:51:37;3179.50;3179.50;3179.50
72031;PMS5003;49185;42.320;23.198;2023-11-22T11:54:02;3229.00;3229.00;3229.00
72031;PMS5003;49185;42.320;23.198;2023-11-22T11:56:28;3023.00;3023.00;3023.00
72031;PMS5003;49185;42.320;23.198;2023-11-22T11:58:55;3031.67;3031.67;3031.67
72031;PMS5003;49185;42.320;23.198;2023-11-22T12:01:21;3036.00;3036.00;3036.00
72031;PMS5003;49185;42.320;23.198;2023-11-22T12:03:47;3040.67;3040.67;3040.67
72031;PMS5003;49185;42.320;23.198;2023-11-22T12:06:16;3045.00;3045.00;3045.00
72031;PMS5003;49185;42.320;23.198;2023-11-22T12:08:43;3083.00;3083.00;3083.00
72031;PMS5003;49185;42.320;23.198;2023-11-22T12:11:09;3069.50;3069.50;3069.50
72031;PMS5003;49185;42.320;23.198;2023-11-22T12:13:35;3111.67;3111.67;3111.67
72031;PMS5003;49185;42.320;23.198;2023-11-22T12:16:02;3288.00;3288.00;3288.00
72031;PMS5003;49185;42.320;23.198;2023-11-22T12:18:27;3306.00;3306.00;3306.00
72031;PMS5003;49185;42.320;23.198;2023-11-22T12:20:59;3299.00;3299.00;3299.00
72031;PMS5003;49185;42.320;23.198;2023-11-22T12:23:25;3274.50;3274.50;3274.50
72031;PMS5003;49185;42.320;23.198;2023-11-22T12:25:59;3295.50;3295.50;3295.50